Time;durP1;ratioP1;P1;durP2;ratioP2;P2;SDS_P1;SDS_P2;PMS_P1;PMS_P2;Temp;Humidity;BMP_temperature;BMP_pressure;BME280_temperature;BME280_humidity;BME280_pressure;Samples;Min_cycle;Max_cycle;Signal;HPM_P1;HPM_P2
2022/01/11 00:01:29;;;;;;;26.20;10.15;;;;;;;;;;5058493;28;20073;-76
2022/01/11 00:03:56;;;;;;;24.15;8.60;;;;;;;;;;5058937;28;20482;-77
2022/01/11 00:08:48;;;;;;;27.98;9.77;;;;;;;;;;5051827;28;20036;-77
2022/01/11 00:11:14;;;;;;;27.58;9.57;;;;;;;;;;5048504;28;20469;-77
2022/01/11 00:13:42;;;;;;;31.33;10.60;;;;;;;;;;5053518;28;20063;-77
2022/01/11 00:16:09;;;;;;;25.70;8.50;;;;;;;;;;5041354;28;20020;-77
2022/01/11 00:18:35;;;;;;;27.05;9.10;;;;;;;;;;5058491;28;20120;-77
2022/01/11 00:21:02;;;;;;;27.65;8.60;;;;;;;;;;5062503;28;20041;-77
2022/01/11 00:25:55;;;;;;;23.80;8.07;;;;;;;;;;5064874;28;20029;-77
2022/01/11 00:28:23;;;;;;;20.73;8.18;;;;;;;;;;5037144;28;20021;-77
2022/01/11 00:30:50;;;;;;;29.30;8.65;;;;;;;;;;5049266;28;20075;-77
2022/01/11 00:33:20;;;;;;;22.27;8.80;;;;;;;;;;5036136;28;20089;-77
2022/01/11 00:35:46;;;;;;;21.30;8.60;;;;;;;;;;5040450;28;20037;-77
2022/01/11 00:38:15;;;;;;;23.23;9.70;;;;;;;;;;5062366;28;20036;-77
2022/01/11 00:40:46;;;;;;;25.10;8.40;;;;;;;;;;5041887;28;20085;-77
2022/01/11 00:43:11;;;;;;;24.63;8.70;;;;;;;;;;5046153;28;20032;-77
2022/01/11 00:45:37;;;;;;;24.23;8.05;;;;;;;;;;5059493;28;20562;-77
2022/01/11 00:48:02;;;;;;;23.30;8.45;;;;;;;;;;5062603;28;20040;-77
2022/01/11 00:50:28;;;;;;;20.23;8.45;;;;;;;;;;5057596;28;20063;-77
2022/01/11 00:52:53;;;;;;;21.27;7.60;;;;;;;;;;5036807;28;20106;-77
2022/01/11 00:55:19;;;;;;;18.60;7.95;;;;;;;;;;5050727;28;20033;-76
2022/01/11 00:57:44;;;;;;;20.80;7.97;;;;;;;;;;5052146;28;20127;-76
2022/01/11 01:00:11;;;;;;;22.00;7.68;;;;;;;;;;5061395;28;20111;-77
2022/01/11 01:02:38;;;;;;;24.13;7.97;;;;;;;;;;5031543;28;20041;-77
2022/01/11 01:05:04;;;;;;;18.90;7.07;;;;;;;;;;5032964;28;20517;-77
2022/01/11 01:07:30;;;;;;;24.00;8.65;;;;;;;;;;5046929;28;20064;-77
2022/01/11 01:10:02;;;;;;;15.68;7.15;;;;;;;;;;5053665;28;20145;-76
2022/01/11 01:12:28;;;;;;;25.10;8.00;;;;;;;;;;5039496;28;20037;-77
2022/01/11 01:14:53;;;;;;;22.42;8.20;;;;;;;;;;5060011;28;20118;-77
2022/01/11 01:17:19;;;;;;;20.77;7.93;;;;;;;;;;5052638;28;20559;-77
2022/01/11 01:19:44;;;;;;;19.27;7.93;;;;;;;;;;5041203;28;20435;-77
2022/01/11 01:22:10;;;;;;;19.80;8.63;;;;;;;;;;5035875;28;20452;-77
2022/01/11 01:24:35;;;;;;;23.05;8.77;;;;;;;;;;5036061;28;20581;-77
2022/01/11 01:27:01;;;;;;;22.17;8.35;;;;;;;;;;5034057;28;20060;-77
2022/01/11 01:29:26;;;;;;;24.20;7.45;;;;;;;;;;5038421;28;20032;-77
2022/01/11 01:31:51;;;;;;;19.95;8.65;;;;;;;;;;5035657;28;20028;-77
2022/01/11 01:34:17;;;;;;;21.83;8.45;;;;;;;;;;5038204;28;20115;-76
2022/01/11 01:36:42;;;;;;;21.38;7.93;;;;;;;;;;5054616;28;20127;-76
2022/01/11 01:39:08;;;;;;;15.43;5.80;;;;;;;;;;5049535;28;20029;-77
2022/01/11 01:41:33;;;;;;;22.60;9.75;;;;;;;;;;5047194;28;20075;-77
2022/01/11 01:44:02;;;;;;;21.73;7.93;;;;;;;;;;5033915;28;20029;-77
2022/01/11 01:46:28;;;;;;;20.17;8.13;;;;;;;;;;5037678;28;20028;-76
2022/01/11 01:48:56;;;;;;;21.63;7.97;;;;;;;;;;5050302;28;20033;-77
2022/01/11 01:51:21;;;;;;;22.52;7.95;;;;;;;;;;5059090;28;20075;-77
2022/01/11 01:53:50;;;;;;;20.52;7.88;;;;;;;;;;5037539;28;20466;-77
2022/01/11 01:56:17;;;;;;;19.75;7.97;;;;;;;;;;5036855;28;20739;-77
2022/01/11 01:58:43;;;;;;;21.08;8.30;;;;;;;;;;5063454;28;21493;-77
2022/01/11 02:01:09;;;;;;;21.42;8.68;;;;;;;;;;5043320;28;20021;-77
2022/01/11 02:03:39;;;;;;;18.85;7.72;;;;;;;;;;5057920;28;20024;-77
2022/01/11 02:06:09;;;;;;;21.92;7.53;;;;;;;;;;5050891;28;20441;-77
2022/01/11 02:08:35;;;;;;;22.00;8.05;;;;;;;;;;5066075;28;20040;-77
2022/01/11 02:11:01;;;;;;;17.75;7.15;;;;;;;;;;5030204;28;20041;-77
2022/01/11 02:13:29;;;;;;;21.40;7.85;;;;;;;;;;5030473;28;20689;-76
2022/01/11 02:15:55;;;;;;;24.08;8.30;;;;;;;;;;5031490;28;20102;-77
2022/01/11 02:18:24;;;;;;;23.33;9.07;;;;;;;;;;5042231;28;20064;-77
2022/01/11 02:20:50;;;;;;;27.17;8.07;;;;;;;;;;5040053;28;20037;-77
2022/01/11 02:23:18;;;;;;;19.42;7.47;;;;;;;;;;5043670;28;20481;-77
2022/01/11 02:25:44;;;;;;;19.50;7.45;;;;;;;;;;5044510;28;20076;-77
2022/01/11 02:28:14;;;;;;;15.23;5.85;;;;;;;;;;5031662;28;20107;-77
2022/01/11 02:30:40;;;;;;;23.05;8.23;;;;;;;;;;5044103;28;20091;-78
2022/01/11 02:33:12;;;;;;;24.55;8.68;;;;;;;;;;5032283;28;20030;-76
2022/01/11 02:35:37;;;;;;;17.75;7.13;;;;;;;;;;5035103;28;20143;-77
2022/01/11 02:38:02;;;;;;;21.45;7.53;;;;;;;;;;5041034;28;20124;-77
2022/01/11 02:40:28;;;;;;;27.50;8.25;;;;;;;;;;5039228;28;20029;-77
2022/01/11 02:42:53;;;;;;;16.77;6.75;;;;;;;;;;5038063;28;20059;-77
2022/01/11 02:45:20;;;;;;;23.65;7.80;;;;;;;;;;5030418;28;20048;-77
2022/01/11 02:47:47;;;;;;;22.38;8.02;;;;;;;;;;5036590;28;20034;-77
2022/01/11 02:50:13;;;;;;;21.60;7.85;;;;;;;;;;5030538;28;20025;-77
2022/01/11 02:52:39;;;;;;;21.20;7.60;;;;;;;;;;5034422;28;20027;-77
2022/01/11 02:55:09;;;;;;;20.40;7.60;;;;;;;;;;5033051;28;20031;-77
2022/01/11 02:57:35;;;;;;;20.25;7.50;;;;;;;;;;5039041;28;20091;-77
2022/01/11 03:00:02;;;;;;;21.33;7.60;;;;;;;;;;5031077;28;20041;-77
2022/01/11 03:02:28;;;;;;;18.33;6.90;;;;;;;;;;5041593;28;20044;-77
2022/01/11 03:04:53;;;;;;;20.80;8.45;;;;;;;;;;5033660;28;20044;-77
2022/01/11 03:07:22;;;;;;;12.30;5.00;;;;;;;;;;5040320;28;20052;-78
2022/01/11 03:10:17;;;;;;;19.55;7.57;;;;;;;;;;5039719;28;20057;-78
2022/01/11 03:12:33;;;;;;;19.40;7.80;;;;;;;;;;5050931;28;20139;-78
2022/01/11 03:14:58;;;;;;;15.45;6.78;;;;;;;;;;5073971;28;20576;-78
2022/01/11 03:17:25;;;;;;;23.92;7.85;;;;;;;;;;5038234;28;20044;-77
2022/01/11 03:19:51;;;;;;;24.25;7.13;;;;;;;;;;5066161;28;20032;-78
2022/01/11 03:22:16;;;;;;;20.58;7.93;;;;;;;;;;5039572;28;20028;-78
2022/01/11 03:24:44;;;;;;;21.10;7.10;;;;;;;;;;5055684;28;20510;-78
2022/01/11 03:27:09;;;;;;;24.15;7.63;;;;;;;;;;5037186;28;20037;-78
2022/01/11 03:29:35;;;;;;;20.48;8.02;;;;;;;;;;5049792;28;20041;-78
2022/01/11 03:32:00;;;;;;;20.98;8.15;;;;;;;;;;5033721;28;20039;-78
2022/01/11 03:34:25;;;;;;;23.40;7.90;;;;;;;;;;5060043;28;20043;-78
2022/01/11 03:36:51;;;;;;;20.08;7.70;;;;;;;;;;5064937;28;20410;-78
2022/01/11 03:39:17;;;;;;;20.77;7.22;;;;;;;;;;5049952;28;20072;-78
2022/01/11 03:41:42;;;;;;;21.45;8.25;;;;;;;;;;5058578;28;20044;-78
2022/01/11 03:44:08;;;;;;;26.08;8.40;;;;;;;;;;5050570;28;20029;-78
2022/01/11 03:46:33;;;;;;;22.55;8.88;;;;;;;;;;5038220;28;20032;-78
2022/01/11 03:48:59;;;;;;;23.13;6.93;;;;;;;;;;5036264;28;20028;-78
2022/01/11 03:51:24;;;;;;;18.33;6.93;;;;;;;;;;5037890;28;20060;-78
2022/01/11 03:54:04;;;;;;;26.13;8.93;;;;;;;;;;5054170;28;20037;-78
2022/01/11 03:56:29;;;;;;;23.85;8.70;;;;;;;;;;5039352;28;20514;-78
2022/01/11 03:58:55;;;;;;;20.33;7.38;;;;;;;;;;5052435;28;20029;-78
2022/01/11 04:01:21;;;;;;;22.13;7.85;;;;;;;;;;5034605;28;20040;-78
2022/01/11 04:03:47;;;;;;;21.80;8.40;;;;;;;;;;5047876;28;20823;-78
2022/01/11 04:06:16;;;;;;;22.65;7.80;;;;;;;;;;5035280;28;20025;-78
2022/01/11 04:08:43;;;;;;;20.85;8.48;;;;;;;;;;5048042;28;20116;-78
2022/01/11 04:11:08;;;;;;;26.75;8.30;;;;;;;;;;5055162;28;20056;-78
2022/01/11 04:13:33;;;;;;;24.23;8.80;;;;;;;;;;5061360;28;20020;-78
2022/01/11 04:15:59;;;;;;;20.92;7.25;;;;;;;;;;5046932;28;20016;-78
2022/01/11 04:18:26;;;;;;;25.25;8.90;;;;;;;;;;5066770;28;20051;-79
2022/01/11 04:20:51;;;;;;;24.08;8.77;;;;;;;;;;5060656;28;20418;-78
2022/01/11 04:23:17;;;;;;;20.38;7.05;;;;;;;;;;5060099;28;20509;-78
2022/01/11 04:25:42;;;;;;;20.70;8.10;;;;;;;;;;5053179;28;20987;-78
2022/01/11 04:28:08;;;;;;;20.58;7.22;;;;;;;;;;5034472;28;20038;-78
2022/01/11 04:30:34;;;;;;;22.95;7.75;;;;;;;;;;5064384;28;21546;-77
2022/01/11 04:33:00;;;;;;;21.13;8.00;;;;;;;;;;5054473;28;20052;-77
2022/01/11 04:35:26;;;;;;;23.95;7.80;;;;;;;;;;5048735;28;20413;-78
2022/01/11 04:37:51;;;;;;;29.48;9.23;;;;;;;;;;5053573;28;20041;-78
2022/01/11 04:40:17;;;;;;;35.38;8.23;;;;;;;;;;5050048;28;20032;-77
2022/01/11 04:42:42;;;;;;;29.65;10.23;;;;;;;;;;5044021;28;20041;-78
2022/01/11 04:45:11;;;;;;;27.23;9.90;;;;;;;;;;5039911;28;20119;-78
2022/01/11 04:47:36;;;;;;;25.88;9.15;;;;;;;;;;5059281;28;20132;-77
2022/01/11 04:50:04;;;;;;;33.00;9.57;;;;;;;;;;5048604;28;20744;-78
2022/01/11 04:52:29;;;;;;;27.80;10.60;;;;;;;;;;5032093;28;20055;-78
2022/01/11 04:54:54;;;;;;;35.40;11.65;;;;;;;;;;5034665;28;20032;-78
2022/01/11 04:57:19;;;;;;;27.23;7.35;;;;;;;;;;5036268;28;20534;-78
2022/01/11 04:59:45;;;;;;;24.85;8.93;;;;;;;;;;5032785;28;20040;-78
2022/01/11 05:02:10;;;;;;;24.30;9.52;;;;;;;;;;5036187;28;20040;-78
2022/01/11 05:04:35;;;;;;;16.83;7.63;;;;;;;;;;5057171;28;20039;-78
2022/01/11 05:07:01;;;;;;;21.92;7.75;;;;;;;;;;5036130;28;20402;-77
2022/01/11 05:09:26;;;;;;;15.35;5.70;;;;;;;;;;5047270;28;20029;-78
2022/01/11 05:11:51;;;;;;;32.22;10.55;;;;;;;;;;5056771;28;20503;-78
2022/01/11 05:14:17;;;;;;;29.33;10.15;;;;;;;;;;5056602;28;20032;-78
2022/01/11 05:16:42;;;;;;;23.33;8.07;;;;;;;;;;5052592;28;20794;-79
2022/01/11 05:19:12;;;;;;;20.92;7.25;;;;;;;;;;5035719;28;20186;-78
2022/01/11 05:21:39;;;;;;;19.63;6.82;;;;;;;;;;5057951;28;20064;-78
2022/01/11 05:24:05;;;;;;;23.75;8.90;;;;;;;;;;5039818;28;20044;-78
2022/01/11 05:26:30;;;;;;;24.30;8.38;;;;;;;;;;5038579;28;20044;-78
2022/01/11 05:28:55;;;;;;;17.08;7.28;;;;;;;;;;5056167;28;20033;-78
2022/01/11 05:31:21;;;;;;;32.65;9.73;;;;;;;;;;5039801;28;20405;-78
2022/01/11 05:33:46;;;;;;;21.02;6.47;;;;;;;;;;5038823;28;20077;-78
2022/01/11 05:36:11;;;;;;;32.72;10.77;;;;;;;;;;5057668;28;20033;-78
2022/01/11 05:38:37;;;;;;;25.33;8.48;;;;;;;;;;5036868;28;20059;-79
2022/01/11 05:41:02;;;;;;;19.58;7.18;;;;;;;;;;5031545;28;20098;-78
2022/01/11 05:43:27;;;;;;;16.20;5.90;;;;;;;;;;5059371;28;20108;-78
2022/01/11 05:45:53;;;;;;;20.15;7.43;;;;;;;;;;5039198;28;20403;-78
2022/01/11 05:48:20;;;;;;;23.10;6.90;;;;;;;;;;5037344;28;20703;-78
2022/01/11 05:50:46;;;;;;;29.83;8.88;;;;;;;;;;5060607;28;20085;-78
2022/01/11 05:53:11;;;;;;;13.43;5.95;;;;;;;;;;5060034;28;20037;-78
2022/01/11 05:55:36;;;;;;;24.58;8.65;;;;;;;;;;5057703;28;20056;-78
2022/01/11 05:58:02;;;;;;;28.33;9.23;;;;;;;;;;5054275;28;20148;-78
2022/01/11 06:00:27;;;;;;;33.90;9.73;;;;;;;;;;5061342;28;20036;-78
2022/01/11 06:02:54;;;;;;;14.20;6.57;;;;;;;;;;5038416;28;20078;-79
2022/01/11 06:05:20;;;;;;;24.42;8.70;;;;;;;;;;5043979;28;20051;-78
2022/01/11 06:07:46;;;;;;;23.65;8.70;;;;;;;;;;5058764;28;20383;-78
2022/01/11 06:10:11;;;;;;;25.20;8.02;;;;;;;;;;5056549;28;20533;-78
2022/01/11 06:12:37;;;;;;;29.20;10.82;;;;;;;;;;5038629;28;20158;-78
2022/01/11 06:15:03;;;;;;;39.17;12.00;;;;;;;;;;5053889;28;20133;-78
2022/01/11 06:17:28;;;;;;;15.32;7.38;;;;;;;;;;5057358;28;20033;-78
2022/01/11 06:19:54;;;;;;;35.47;11.43;;;;;;;;;;5057162;28;20028;-78
2022/01/11 06:22:20;;;;;;;26.98;8.18;;;;;;;;;;5057704;28;20433;-78
2022/01/11 06:24:47;;;;;;;26.92;9.90;;;;;;;;;;5041810;28;20041;-78
2022/01/11 06:27:13;;;;;;;28.30;7.88;;;;;;;;;;5060477;28;20045;-79
2022/01/11 06:29:38;;;;;;;27.90;10.70;;;;;;;;;;5039299;28;20048;-79
2022/01/11 06:32:03;;;;;;;26.45;10.10;;;;;;;;;;5057227;28;20103;-78
2022/01/11 06:34:29;;;;;;;36.25;11.88;;;;;;;;;;5051979;28;20718;-79
2022/01/11 06:36:54;;;;;;;35.90;13.23;;;;;;;;;;5039012;28;20105;-78
2022/01/11 06:39:19;;;;;;;33.15;12.60;;;;;;;;;;5056638;28;20052;-78
2022/01/11 06:41:45;;;;;;;36.30;12.98;;;;;;;;;;5059225;28;20033;-80
2022/01/11 06:44:11;;;;;;;34.88;11.73;;;;;;;;;;5035441;28;20597;-78
2022/01/11 06:46:37;;;;;;;29.08;10.50;;;;;;;;;;5042430;28;20036;-79
2022/01/11 06:49:04;;;;;;;39.53;13.15;;;;;;;;;;5035626;28;20028;-78
2022/01/11 06:51:29;;;;;;;39.30;11.57;;;;;;;;;;5069788;28;20043;-79
2022/01/11 06:53:55;;;;;;;36.17;10.68;;;;;;;;;;5067495;28;20135;-79
2022/01/11 06:56:21;;;;;;;37.15;12.05;;;;;;;;;;5057809;28;20041;-79
2022/01/11 06:58:46;;;;;;;39.63;14.93;;;;;;;;;;5035616;28;20040;-78
2022/01/11 07:01:11;;;;;;;35.20;11.80;;;;;;;;;;5055613;28;20025;-78
2022/01/11 07:03:37;;;;;;;33.85;11.43;;;;;;;;;;5056063;28;20051;-79
2022/01/11 07:06:03;;;;;;;43.13;13.40;;;;;;;;;;5056170;28;20028;-78
2022/01/11 07:08:29;;;;;;;50.97;16.35;;;;;;;;;;5055397;28;20037;-78
2022/01/11 07:10:54;;;;;;;50.70;15.65;;;;;;;;;;5052937;28;20049;-75
2022/01/11 07:13:20;;;;;;;54.72;16.85;;;;;;;;;;5040385;28;20181;-79
2022/01/11 07:15:45;;;;;;;43.20;12.63;;;;;;;;;;5056045;28;20062;-79
2022/01/11 07:18:12;;;;;;;50.08;16.02;;;;;;;;;;5060628;28;20132;-79
2022/01/11 07:20:39;;;;;;;45.53;15.07;;;;;;;;;;5037311;28;20041;-79
2022/01/11 07:23:04;;;;;;;50.92;15.38;;;;;;;;;;5040354;28;20182;-79
2022/01/11 07:25:32;;;;;;;57.80;17.27;;;;;;;;;;5052640;28;20124;-80
2022/01/11 07:27:58;;;;;;;43.17;13.25;;;;;;;;;;5039916;28;20524;-80
2022/01/11 07:30:24;;;;;;;35.17;11.80;;;;;;;;;;5038899;28;20544;-79
2022/01/11 07:32:50;;;;;;;43.45;14.57;;;;;;;;;;5056573;28;20033;-80
2022/01/11 07:35:15;;;;;;;55.58;16.15;;;;;;;;;;5037799;28;20582;-78
2022/01/11 07:37:41;;;;;;;46.58;13.68;;;;;;;;;;5044730;28;20029;-79
2022/01/11 07:40:06;;;;;;;37.70;11.55;;;;;;;;;;5064801;28;20186;-80
2022/01/11 07:42:32;;;;;;;28.98;9.93;;;;;;;;;;5053923;28;20045;-80
2022/01/11 07:44:57;;;;;;;38.88;11.18;;;;;;;;;;5052894;28;20037;-80
2022/01/11 07:47:22;;;;;;;32.17;11.32;;;;;;;;;;5041342;28;20040;-79
2022/01/11 07:49:48;;;;;;;32.00;10.10;;;;;;;;;;5050567;28;20399;-80
2022/01/11 07:52:14;;;;;;;36.83;11.50;;;;;;;;;;5057744;28;20036;-79
2022/01/11 07:54:40;;;;;;;32.40;10.48;;;;;;;;;;5035781;28;20040;-79
2022/01/11 07:57:06;;;;;;;36.03;11.73;;;;;;;;;;5051260;28;20570;-79
2022/01/11 07:59:32;;;;;;;37.63;10.90;;;;;;;;;;5037978;28;20037;-79
2022/01/11 08:01:58;;;;;;;35.60;11.25;;;;;;;;;;5037786;28;20051;-79
2022/01/11 08:04:23;;;;;;;38.55;10.35;;;;;;;;;;5056026;28;20107;-78
2022/01/11 08:06:49;;;;;;;34.95;10.15;;;;;;;;;;5056049;28;20060;-79
2022/01/11 08:09:15;;;;;;;32.05;11.75;;;;;;;;;;5059211;28;20041;-79
2022/01/11 08:11:41;;;;;;;31.35;9.77;;;;;;;;;;5056874;28;20037;-79
2022/01/11 08:14:07;;;;;;;26.23;9.80;;;;;;;;;;5055226;28;20044;-80
2022/01/11 08:16:32;;;;;;;32.83;10.80;;;;;;;;;;5053617;28;20032;-80
2022/01/11 08:18:57;;;;;;;39.17;11.30;;;;;;;;;;5037430;28;20474;-79
2022/01/11 08:21:23;;;;;;;24.58;8.98;;;;;;;;;;5052728;28;20066;-80
2022/01/11 08:23:48;;;;;;;29.83;9.73;;;;;;;;;;5055972;28;20102;-80
2022/01/11 08:26:13;;;;;;;30.63;9.50;;;;;;;;;;5055744;28;20120;-80
2022/01/11 08:28:39;;;;;;;26.95;8.55;;;;;;;;;;5045982;28;20033;-79
2022/01/11 08:31:05;;;;;;;26.77;8.73;;;;;;;;;;5055053;28;20039;-78
2022/01/11 08:33:30;;;;;;;25.23;8.55;;;;;;;;;;5052321;28;20067;-79
2022/01/11 08:35:55;;;;;;;28.60;8.93;;;;;;;;;;5038048;28;20040;-79
2022/01/11 08:38:21;;;;;;;30.33;9.65;;;;;;;;;;5049096;28;20048;-79
2022/01/11 08:40:46;;;;;;;36.55;10.27;;;;;;;;;;5059514;28;20047;-75
2022/01/11 08:43:13;;;;;;;27.80;9.20;;;;;;;;;;5054983;28;20097;-75
2022/01/11 08:45:39;;;;;;;33.70;10.35;;;;;;;;;;5031712;28;20091;-77
2022/01/11 08:48:05;;;;;;;29.15;8.88;;;;;;;;;;5052503;28;20506;-76
2022/01/11 08:50:31;;;;;;;33.90;11.38;;;;;;;;;;5034369;28;20135;-75
2022/01/11 08:52:57;;;;;;;31.30;10.15;;;;;;;;;;5059130;28;20090;-75
2022/01/11 08:55:23;;;;;;;27.00;8.65;;;;;;;;;;5039684;28;20053;-76
2022/01/11 08:57:49;;;;;;;34.28;10.27;;;;;;;;;;5048451;28;20091;-76
2022/01/11 09:00:18;;;;;;;32.50;10.95;;;;;;;;;;5054194;28;20045;-76
2022/01/11 09:02:48;;;;;;;32.47;10.23;;;;;;;;;;5045170;28;20044;-74
2022/01/11 09:05:15;;;;;;;28.63;9.23;;;;;;;;;;5041016;28;20041;-76
2022/01/11 09:07:41;;;;;;;25.30;8.07;;;;;;;;;;5058384;28;20029;-74
2022/01/11 09:10:07;;;;;;;30.63;9.65;;;;;;;;;;5049288;28;20117;-74
2022/01/11 09:12:33;;;;;;;31.27;10.55;;;;;;;;;;5046552;28;20032;-73
2022/01/11 09:14:59;;;;;;;29.35;10.15;;;;;;;;;;5049925;28;20047;-75
2022/01/11 09:17:24;;;;;;;29.77;8.95;;;;;;;;;;5049276;28;20449;-75
2022/01/11 09:19:50;;;;;;;9.43;4.47;;;;;;;;;;5028767;28;20046;-75
2022/01/11 09:22:15;;;;;;;31.08;9.88;;;;;;;;;;5050982;28;20514;-75
2022/01/11 09:24:41;;;;;;;31.45;10.63;;;;;;;;;;5047627;28;20536;-75
2022/01/11 09:27:07;;;;;;;20.95;7.28;;;;;;;;;;5048563;28;20119;-75
2022/01/11 09:29:36;;;;;;;29.65;10.35;;;;;;;;;;5044878;28;20114;-75
2022/01/11 09:32:04;;;;;;;16.15;6.35;;;;;;;;;;5027941;28;20107;-75
2022/01/11 09:34:29;;;;;;;22.40;7.80;;;;;;;;;;5047020;28;20206;-75
2022/01/11 09:36:55;;;;;;;30.02;9.18;;;;;;;;;;5029503;28;20040;-75
2022/01/11 09:39:21;;;;;;;27.13;8.30;;;;;;;;;;5052978;28;20080;-75
2022/01/11 09:41:46;;;;;;;24.95;9.35;;;;;;;;;;5048123;28;20040;-75
2022/01/11 09:44:12;;;;;;;18.25;7.88;;;;;;;;;;5050035;28;20742;-75
2022/01/11 09:46:37;;;;;;;11.20;5.55;;;;;;;;;;5030321;28;20086;-75
2022/01/11 09:49:04;;;;;;;16.83;6.63;;;;;;;;;;5056046;28;20039;-75
2022/01/11 09:51:32;;;;;;;18.15;6.22;;;;;;;;;;5061851;28;20052;-74
2022/01/11 09:53:58;;;;;;;21.10;9.25;;;;;;;;;;5073806;28;20099;-75
2022/01/11 09:56:23;;;;;;;29.02;9.93;;;;;;;;;;5052685;28;20037;-76
2022/01/11 09:58:49;;;;;;;29.15;9.65;;;;;;;;;;5052160;28;20037;-74
2022/01/11 10:01:14;;;;;;;29.58;8.93;;;;;;;;;;5049775;28;20458;-74
2022/01/11 10:04:11;;;;;;;17.77;6.18;;;;;;;;;;5032717;28;20125;-74
2022/01/11 10:06:39;;;;;;;16.63;6.95;;;;;;;;;;5053031;28;20032;-74
2022/01/11 10:09:16;;;;;;;26.48;8.73;;;;;;;;;;5055964;28;20090;-74
2022/01/11 10:11:44;;;;;;;16.55;6.22;;;;;;;;;;5053764;28;20037;-72
2022/01/11 10:14:31;;;;;;;21.55;8.43;;;;;;;;;;5050696;28;20041;-74
2022/01/11 10:17:23;;;;;;;17.65;7.15;;;;;;;;;;5055636;28;20041;-73
2022/01/11 10:19:58;;;;;;;16.30;5.65;;;;;;;;;;5055927;28;20584;-75
2022/01/11 10:22:24;;;;;;;24.13;8.85;;;;;;;;;;5052171;28;20089;-77
2022/01/11 10:24:52;;;;;;;16.95;6.00;;;;;;;;;;5037104;28;20033;-75
2022/01/11 10:27:18;;;;;;;24.63;7.07;;;;;;;;;;5052474;28;20128;-74
2022/01/11 10:29:48;;;;;;;25.90;7.78;;;;;;;;;;5051911;28;20139;-78
2022/01/11 10:32:22;;;;;;;11.45;4.95;;;;;;;;;;5052098;28;20569;-74
2022/01/11 10:34:52;;;;;;;20.42;7.07;;;;;;;;;;5052920;28;20670;-76
2022/01/11 10:37:36;;;;;;;19.45;7.10;;;;;;;;;;5052605;28;20081;-76
2022/01/11 10:40:05;;;;;;;;;;;;;;;;;;5052851;28;20045;-78
2022/01/11 10:42:33;;;;;;;16.48;5.43;;;;;;;;;;5033386;28;19971;-77
2022/01/11 10:45:11;;;;;;;21.45;7.18;;;;;;;;;;5056365;28;20041;-77
2022/01/11 10:47:41;;;;;;;20.52;6.93;;;;;;;;;;5048690;28;20052;-76
2022/01/11 10:50:10;;;;;;;23.92;8.18;;;;;;;;;;5054691;28;20540;-75
2022/01/11 10:52:37;;;;;;;19.67;7.20;;;;;;;;;;5053792;28;20076;-75
2022/01/11 10:55:04;;;;;;;18.08;6.97;;;;;;;;;;5051415;28;20039;-76
2022/01/11 10:57:32;;;;;;;19.92;7.95;;;;;;;;;;5053389;28;20441;-76
2022/01/11 11:00:15;;;;;;;18.05;6.82;;;;;;;;;;5055418;28;20051;-76
2022/01/11 11:02:42;;;;;;;19.60;7.03;;;;;;;;;;5053105;28;20033;-73
2022/01/11 11:05:24;;;;;;;21.95;7.68;;;;;;;;;;5052207;28;20029;-73
2022/01/11 11:08:03;;;;;;;16.08;6.55;;;;;;;;;;5051609;28;20158;-74
2022/01/11 11:10:44;;;;;;;14.48;5.20;;;;;;;;;;5053474;28;20052;-74
2022/01/11 11:13:17;;;;;;;15.02;5.95;;;;;;;;;;5051285;28;20036;-74
2022/01/11 11:15:42;;;;;;;;;;;;;;;;;;5055971;28;20051;-77
2022/01/11 11:18:22;;;;;;;18.02;6.35;;;;;;;;;;5051398;28;19925;-78
2022/01/11 11:20:47;;;;;;;19.08;6.32;;;;;;;;;;5055063;28;20044;-77
2022/01/11 11:23:15;;;;;;;16.73;6.55;;;;;;;;;;5034484;28;20429;-75
2022/01/11 11:25:40;;;;;;;19.88;5.50;;;;;;;;;;5054528;28;20094;-75
2022/01/11 11:28:06;;;;;;;18.60;7.40;;;;;;;;;;5052731;28;20033;-77
2022/01/11 11:30:32;;;;;;;15.90;6.78;;;;;;;;;;5033664;28;20565;-75
2022/01/11 11:32:57;;;;;;;21.45;8.27;;;;;;;;;;5058669;28;20036;-74
2022/01/11 11:35:23;;;;;;;22.60;8.40;;;;;;;;;;5053130;28;20044;-77
2022/01/11 11:38:04;;;;;;;20.52;7.90;;;;;;;;;;5051506;28;20076;-76
2022/01/11 11:40:31;;;;;;;21.88;7.20;;;;;;;;;;5051863;28;20797;-73
2022/01/11 11:43:01;;;;;;;22.30;7.70;;;;;;;;;;5054556;28;20032;-73
2022/01/11 11:45:32;;;;;;;20.08;7.15;;;;;;;;;;5051019;28;20544;-73
2022/01/11 11:48:12;;;;;;;21.17;6.70;;;;;;;;;;5049902;28;20068;-73
2022/01/11 11:50:55;;;;;;;18.95;7.22;;;;;;;;;;5053845;28;20032;-73
2022/01/11 11:53:47;;;;;;;21.05;6.85;;;;;;;;;;5052666;28;20079;-73
2022/01/11 11:56:22;;;;;;;20.73;7.18;;;;;;;;;;5047564;28;20071;-73
2022/01/11 11:58:57;;;;;;;19.67;7.35;;;;;;;;;;5051478;28;20032;-73
2022/01/11 12:01:46;;;;;;;16.50;6.82;;;;;;;;;;5047452;28;21513;-73
2022/01/11 12:04:36;;;;;;;16.02;6.57;;;;;;;;;;5050951;28;20064;-73
2022/01/11 12:07:31;;;;;;;17.95;6.60;;;;;;;;;;5049805;28;20521;-73
2022/01/11 12:09:57;;;;;;;17.45;6.40;;;;;;;;;;5054708;28;20086;-73
2022/01/11 12:12:38;;;;;;;19.95;6.72;;;;;;;;;;5053556;28;20885;-73
2022/01/11 12:15:22;;;;;;;15.95;5.97;;;;;;;;;;5050734;28;20053;-73
2022/01/11 12:17:47;;;;;;;;;;;;;;;;;;5050382;28;20310;-73
2022/01/11 12:20:38;;;;;;;19.52;6.35;;;;;;;;;;5050515;28;20407;-73
2022/01/11 12:23:04;;;;;;;17.77;7.00;;;;;;;;;;5051366;28;20639;-74
2022/01/11 12:25:33;;;;;;;18.88;7.68;;;;;;;;;;5049223;28;20503;-73
2022/01/11 12:28:04;;;;;;;16.63;7.07;;;;;;;;;;5053662;28;20170;-74
2022/01/11 12:30:31;;;;;;;18.48;7.32;;;;;;;;;;5053138;28;21263;-74
2022/01/11 12:33:14;;;;;;;20.20;6.90;;;;;;;;;;5052785;28;20052;-74
2022/01/11 12:36:12;;;;;;;18.60;5.22;;;;;;;;;;5051831;28;20044;-74
2022/01/11 12:39:03;;;;;;;19.00;6.10;;;;;;;;;;5020178;28;20062;-74
2022/01/11 12:41:30;;;;;;;18.35;6.28;;;;;;;;;;5047826;28;20106;-74
2022/01/11 12:44:19;;;;;;;15.88;5.60;;;;;;;;;;5057814;28;20036;-74
2022/01/11 12:47:05;;;;;;;13.52;6.03;;;;;;;;;;5049642;28;20666;-78
2022/01/11 12:49:32;;;;;;;15.18;6.07;;;;;;;;;;5046624;28;20055;-79
2022/01/11 12:52:09;;;;;;;16.23;6.95;;;;;;;;;;5047326;28;20115;-78
2022/01/11 12:54:38;;;;;;;13.95;5.60;;;;;;;;;;5052440;28;20048;-76
2022/01/11 12:57:12;;;;;;;12.32;4.75;;;;;;;;;;5051045;28;20525;-78
2022/01/11 12:59:40;;;;;;;16.85;6.25;;;;;;;;;;5051945;28;20074;-77
2022/01/11 13:02:09;;;;;;;19.13;5.82;;;;;;;;;;5049412;28;20040;-78
2022/01/11 13:04:39;;;;;;;13.00;5.28;;;;;;;;;;5032172;28;20175;-77
2022/01/11 13:07:25;;;;;;;16.85;6.00;;;;;;;;;;5051044;28;20021;-77
2022/01/11 13:10:00;;;;;;;10.75;4.93;;;;;;;;;;5049940;28;20109;-77
2022/01/11 13:12:30;;;;;;;13.65;5.60;;;;;;;;;;5053690;28;20037;-77
2022/01/11 13:15:34;;;;;;;17.20;6.00;;;;;;;;;;5049691;28;20509;-78
2022/01/11 13:18:13;;;;;;;30.20;9.75;;;;;;;;;;5039346;28;20796;-76
2022/01/11 13:20:42;;;;;;;27.50;10.00;;;;;;;;;;5050897;28;20830;-77
2022/01/11 13:25:41;;;;;;;22.50;8.65;;;;;;;;;;5049560;28;20044;-78
2022/01/11 13:28:07;;;;;;;22.98;8.98;;;;;;;;;;5052449;28;20029;-77
2022/01/11 13:30:38;;;;;;;22.70;8.73;;;;;;;;;;5054428;28;20377;-74
2022/01/11 13:33:04;;;;;;;20.90;8.80;;;;;;;;;;5050272;28;20041;-79
2022/01/11 13:35:29;;;;;;;20.75;8.50;;;;;;;;;;5051569;28;20138;-78
2022/01/11 13:37:55;;;;;;;29.25;10.07;;;;;;;;;;5053149;28;20510;-80
2022/01/11 13:40:28;;;;;;;23.20;9.38;;;;;;;;;;5048717;28;20119;-77
2022/01/11 13:43:01;;;;;;;28.70;10.52;;;;;;;;;;5054948;28;20055;-80
2022/01/11 13:45:34;;;;;;;;;;;;;;;;;;5051236;28;20048;-76
2022/01/11 13:48:35;;;;;;;31.58;10.82;;;;;;;;;;5053548;28;19931;-76
2022/01/11 13:51:01;;;;;;;30.50;10.15;;;;;;;;;;5014073;28;20036;-75
2022/01/11 13:53:30;;;;;;;26.90;9.82;;;;;;;;;;5052519;28;20503;-79
2022/01/11 13:56:10;;;;;;;23.60;9.18;;;;;;;;;;5056620;28;20141;-82
2022/01/11 13:58:38;;;;;;;27.92;10.75;;;;;;;;;;5036376;28;20029;-79
2022/01/11 14:01:05;;;;;;;29.08;10.45;;;;;;;;;;5042238;28;20032;-78
2022/01/11 14:03:31;;;;;;;31.92;11.75;;;;;;;;;;5055291;28;20037;-81
2022/01/11 14:06:08;;;;;;;29.48;11.52;;;;;;;;;;5066342;28;20106;-80
2022/01/11 14:08:33;;;;;;;31.73;12.07;;;;;;;;;;5064076;28;20399;-73
2022/01/11 14:11:07;;;;;;;30.63;11.85;;;;;;;;;;5045933;28;20052;-79
2022/01/11 14:13:33;;;;;;;26.70;10.52;;;;;;;;;;5040418;28;20067;-82
2022/01/11 14:15:59;;;;;;;29.60;10.68;;;;;;;;;;5050644;28;20032;-77
2022/01/11 14:18:27;;;;;;;30.67;10.85;;;;;;;;;;5052394;28;20048;-80
2022/01/11 14:21:06;;;;;;;28.08;9.55;;;;;;;;;;5055106;28;20051;-82
2022/01/11 14:23:34;;;;;;;29.40;9.75;;;;;;;;;;5049899;28;20048;-75
2022/01/11 14:25:59;;;;;;;24.92;9.95;;;;;;;;;;5055265;28;20052;-77
2022/01/11 14:28:28;;;;;;;26.15;9.77;;;;;;;;;;5057178;28;20077;-75
2022/01/11 14:30:56;;;;;;;13.93;5.38;;;;;;;;;;5052882;28;20040;-77
2022/01/11 14:33:25;;;;;;;10.32;4.38;;;;;;;;;;5051382;28;20048;-78
2022/01/11 14:35:56;;;;;;;12.05;4.13;;;;;;;;;;5053198;28;20063;-80
2022/01/11 14:38:38;;;;;;;11.70;4.45;;;;;;;;;;5051343;28;20119;-78
2022/01/11 14:41:04;;;;;;;11.18;4.70;;;;;;;;;;5050045;28;20049;-75
2022/01/11 14:43:29;;;;;;;12.75;5.13;;;;;;;;;;5053134;28;20052;-76